createdAt,value
2019-01-25T00:01:19.464Z,60.80
2019-01-25T00:03:22.985Z,60.80
2019-01-25T00:05:26.630Z,60.70
2019-01-25T00:07:29.849Z,60.70
2019-01-25T00:09:32.738Z,60.60
2019-01-25T00:11:36.445Z,60.40
2019-01-25T00:13:40.129Z,60.30
2019-01-25T00:15:43.794Z,60.30
2019-01-25T00:17:46.707Z,60.20
2019-01-25T00:19:50.408Z,60.20
2019-01-25T00:21:54.074Z,60.20
2019-01-25T00:23:57.821Z,60.20
2019-01-25T00:26:00.660Z,60.00
2019-01-25T00:28:04.288Z,60.10
2019-01-25T00:30:10.672Z,60.00
2019-01-25T00:32:14.337Z,59.80
2019-01-25T00:34:17.799Z,59.80
2019-01-25T00:36:20.750Z,59.70
2019-01-25T00:38:24.093Z,59.50
2019-01-25T00:40:27.106Z,59.40
2019-01-25T00:42:31.615Z,59.20
2019-01-25T00:44:35.314Z,59.60
2019-01-25T00:46:39.706Z,58.90
2019-01-25T00:48:42.741Z,58.90
2019-01-25T00:50:46.374Z,58.70
2019-01-25T00:52:49.294Z,58.60
2019-01-25T00:54:53.312Z,58.60
2019-01-25T00:56:57.655Z,58.60
2019-01-25T00:59:00.594Z,58.50
2019-01-25T01:01:05.014Z,58.40
2019-01-25T01:03:08.131Z,58.30
2019-01-25T01:05:11.831Z,58.20
2019-01-25T01:07:16.166Z,58.10
2019-01-25T01:09:19.082Z,58.00
2019-01-25T01:11:21.963Z,58.00
2019-01-25T01:13:24.970Z,58.00
2019-01-25T01:15:28.619Z,57.90
2019-01-25T01:17:32.573Z,57.90
2019-01-25T01:19:36.279Z,58.50
2019-01-25T01:21:39.162Z,57.80
2019-01-25T01:23:42.847Z,57.90
2019-01-25T01:25:45.835Z,57.80
2019-01-25T01:27:49.304Z,57.80
2019-01-25T01:29:52.311Z,57.50
2019-01-25T01:31:55.204Z,57.00
2019-01-25T01:33:58.862Z,57.40
2019-01-25T01:36:02.416Z,57.30
2019-01-25T01:38:06.042Z,57.50
2019-01-25T01:40:12.332Z,57.50
2019-01-25T01:42:15.214Z,57.50
2019-01-25T01:44:18.116Z,57.50
2019-01-25T01:46:21.770Z,57.50
2019-01-25T01:48:25.098Z,57.40
2019-01-25T01:50:29.103Z,57.40
2019-01-25T01:52:33.433Z,57.90
2019-01-25T01:54:37.105Z,57.30
2019-01-25T01:56:39.986Z,57.30
2019-01-25T01:58:42.884Z,57.30
2019-01-25T02:00:45.839Z,57.20
2019-01-25T02:02:48.739Z,57.10
2019-01-25T02:04:53.186Z,57.00
2019-01-25T02:06:56.304Z,57.00
2019-01-25T02:08:59.810Z,57.00
2019-01-25T02:11:02.699Z,57.00
2019-01-25T02:13:06.406Z,57.00
2019-01-25T02:15:09.291Z,57.00
2019-01-25T02:17:12.183Z,57.00
2019-01-25T02:19:15.091Z,57.00
2019-01-25T02:21:18.931Z,57.00
2019-01-25T02:23:21.816Z,56.90
2019-01-25T02:25:25.442Z,56.80
2019-01-25T02:27:28.419Z,56.80
2019-01-25T02:29:31.339Z,56.20
2019-01-25T02:31:35.004Z,56.10
2019-01-25T02:33:40.111Z,56.20
2019-01-25T02:35:43.010Z,56.10
2019-01-25T02:37:45.900Z,56.30
2019-01-25T02:39:49.600Z,57.20
2019-01-25T02:41:53.421Z,56.40
2019-01-25T02:43:57.078Z,56.70
2019-01-25T02:46:00.193Z,56.60
2019-01-25T02:48:03.258Z,56.70
2019-01-25T02:50:15.697Z,56.80
2019-01-25T02:52:19.356Z,56.70
2019-01-25T02:54:22.458Z,56.70
2019-01-25T02:56:25.442Z,56.60
2019-01-25T02:58:28.343Z,56.60
2019-01-25T03:00:32.134Z,56.90
2019-01-25T03:02:36.038Z,56.00
2019-01-25T03:04:39.767Z,56.40
2019-01-25T03:06:43.427Z,56.30
2019-01-25T03:08:47.896Z,56.20
2019-01-25T03:10:50.840Z,56.20
2019-01-25T03:12:54.511Z,56.10
2019-01-25T03:14:57.415Z,56.10
2019-01-25T03:17:00.283Z,56.00
2019-01-25T03:19:03.299Z,56.00
2019-01-25T03:21:06.259Z,55.90
2019-01-25T03:23:09.148Z,55.80
2019-01-25T03:25:12.739Z,55.80
2019-01-25T03:27:15.726Z,55.70
2019-01-25T03:29:18.636Z,55.60
2019-01-25T03:31:22.808Z,55.40
2019-01-25T03:33:25.795Z,55.30
2019-01-25T03:35:29.395Z,55.20
2019-01-25T03:37:32.391Z,55.20
2019-01-25T03:39:36.147Z,55.10
2019-01-25T03:41:39.069Z,55.00
2019-01-25T03:43:42.299Z,54.90
2019-01-25T03:45:45.184Z,54.90
2019-01-25T03:47:48.194Z,54.80
2019-01-25T03:49:51.198Z,54.80
2019-01-25T03:51:54.126Z,54.70
2019-01-25T03:53:57.046Z,54.70
2019-01-25T03:56:00.459Z,54.60
2019-01-25T03:58:04.115Z,54.60
2019-01-25T04:00:10.991Z,54.60
2019-01-25T04:02:14.115Z,54.50
2019-01-25T04:04:16.989Z,54.40
2019-01-25T04:06:19.871Z,54.40
2019-01-25T04:08:22.911Z,54.30
2019-01-25T04:10:26.658Z,54.30
2019-01-25T04:12:29.543Z,54.30
2019-01-25T04:14:33.238Z,54.30
2019-01-25T04:16:36.230Z,54.30
2019-01-25T04:18:41.336Z,54.30
2019-01-25T04:20:44.747Z,54.20
2019-01-25T04:22:47.634Z,54.10
2019-01-25T04:24:50.655Z,54.10
2019-01-25T04:26:54.383Z,54.10
2019-01-25T04:28:57.264Z,54.20
2019-01-25T04:31:00.300Z,54.20
2019-01-25T04:33:04.102Z,54.30
2019-01-25T04:35:06.967Z,54.20
2019-01-25T04:37:10.676Z,54.90
2019-01-25T04:39:14.351Z,54.10
2019-01-25T04:41:17.235Z,54.10
2019-01-25T04:43:20.226Z,54.10
2019-01-25T04:45:23.332Z,54.10
2019-01-25T04:47:26.194Z,54.10
2019-01-25T04:49:29.320Z,54.10
2019-01-25T04:51:32.363Z,54.10
2019-01-25T04:53:35.871Z,54.10
2019-01-25T04:55:39.561Z,54.20
2019-01-25T04:57:42.575Z,54.10
2019-01-25T04:59:46.864Z,54.10
2019-01-25T05:01:52.088Z,54.20
2019-01-25T05:03:54.059Z,54.10
2019-01-25T05:05:57.856Z,54.20
2019-01-25T05:08:01.514Z,54.90
2019-01-25T05:10:04.427Z,54.20
2019-01-25T05:12:07.335Z,54.30
2019-01-25T05:14:10.304Z,54.30
2019-01-25T05:16:13.415Z,54.30
2019-01-25T05:18:17.316Z,54.40
2019-01-25T05:20:21.000Z,54.40
2019-01-25T05:22:24.676Z,55.00
2019-01-25T05:24:27.566Z,54.40
2019-01-25T05:26:30.443Z,54.40
2019-01-25T05:28:33.439Z,54.50
2019-01-25T05:30:36.326Z,54.50
2019-01-25T05:32:39.974Z,54.60
2019-01-25T05:34:42.995Z,54.60
2019-01-25T05:36:45.994Z,54.60
2019-01-25T05:38:49.653Z,54.70
2019-01-25T05:40:52.660Z,54.60
2019-01-25T05:42:55.548Z,54.70
2019-01-25T05:44:58.499Z,54.70
2019-01-25T05:47:01.414Z,54.70
2019-01-25T05:49:04.801Z,54.70
2019-01-25T05:51:07.681Z,54.70
2019-01-25T05:53:11.981Z,54.90
2019-01-25T05:55:15.731Z,54.70
2019-01-25T05:57:19.815Z,54.80
2019-01-25T05:59:24.077Z,54.70
2019-01-25T06:01:27.114Z,54.70
2019-01-25T06:03:29.978Z,54.30
2019-01-25T06:05:32.969Z,54.10
2019-01-25T06:07:36.642Z,55.00
2019-01-25T06:09:39.555Z,54.50
2019-01-25T06:11:42.522Z,54.60
2019-01-25T06:13:45.406Z,54.70
2019-01-25T06:15:48.398Z,54.80
2019-01-25T06:17:51.375Z,54.90
2019-01-25T06:19:55.252Z,55.00
2019-01-25T06:21:58.127Z,54.90
2019-01-25T06:24:02.282Z,55.00
2019-01-25T06:26:05.927Z,55.10
2019-01-25T06:28:08.847Z,55.00
2019-01-25T06:30:11.853Z,55.10
2019-01-25T06:32:16.002Z,55.20
2019-01-25T06:34:18.883Z,55.20
2019-01-25T06:36:22.314Z,55.10
2019-01-25T06:38:25.719Z,55.20
2019-01-25T06:40:29.406Z,55.30
2019-01-25T06:42:32.323Z,55.20
2019-01-25T06:44:35.278Z,55.20
2019-01-25T06:46:38.253Z,55.20
2019-01-25T06:48:41.344Z,55.20
2019-01-25T06:50:44.257Z,55.20
2019-01-25T06:52:47.219Z,55.20
2019-01-25T06:54:51.030Z,55.20
2019-01-25T06:56:54.677Z,55.20
2019-01-25T06:58:58.014Z,55.20
2019-01-25T07:01:17.454Z,55.30
2019-01-25T07:03:21.231Z,55.20
2019-01-25T07:05:24.802Z,55.10
2019-01-25T07:07:29.047Z,55.30
2019-01-25T07:09:32.562Z,55.20
2019-01-25T07:11:41.877Z,55.30
2019-01-25T07:13:39.873Z,55.40
2019-01-25T07:15:42.762Z,55.30
2019-01-25T07:17:45.718Z,55.40
2019-01-25T07:19:48.625Z,55.50
2019-01-25T07:21:51.599Z,55.50
2019-01-25T07:23:54.578Z,55.60
2019-01-25T07:25:57.498Z,55.60
2019-01-25T07:28:01.162Z,55.70
2019-01-25T07:30:04.058Z,55.60
2019-01-25T07:32:07.951Z,55.80
2019-01-25T07:34:11.411Z,55.80
2019-01-25T07:36:15.435Z,55.70
2019-01-25T07:38:18.767Z,55.80
2019-01-25T07:40:21.628Z,55.90
2019-01-25T07:42:25.852Z,56.60
2019-01-25T07:44:29.533Z,56.10
2019-01-25T07:46:32.411Z,55.90
2019-01-25T07:48:35.598Z,56.50
2019-01-25T07:50:38.282Z,55.90
2019-01-25T07:52:41.942Z,56.10
2019-01-25T07:54:45.135Z,56.00
2019-01-25T07:56:48.488Z,56.10
2019-01-25T07:58:52.132Z,56.20
2019-01-25T08:00:55.063Z,56.20
2019-01-25T08:02:58.959Z,56.30
2019-01-25T08:05:02.610Z,56.40
2019-01-25T08:07:06.012Z,57.00
2019-01-25T08:09:08.918Z,56.40
2019-01-25T08:11:12.593Z,56.50
2019-01-25T08:13:16.017Z,56.50
2019-01-25T08:15:20.729Z,56.60
2019-01-25T08:17:23.611Z,56.60
2019-01-25T08:19:26.598Z,56.60
2019-01-25T08:21:29.689Z,56.70
2019-01-25T08:23:32.586Z,56.70
2019-01-25T08:25:36.242Z,57.00
2019-01-25T08:27:39.189Z,56.90
2019-01-25T08:29:43.533Z,57.10
2019-01-25T08:31:46.605Z,57.10
2019-01-25T08:33:50.145Z,56.70
2019-01-25T08:35:53.154Z,57.10
2019-01-25T08:37:56.822Z,56.90
2019-01-25T08:39:59.930Z,57.20
2019-01-25T08:42:02.946Z,57.40
2019-01-25T08:44:06.593Z,57.50
2019-01-25T08:46:09.483Z,57.50
2019-01-25T08:48:12.419Z,57.60
2019-01-25T08:50:15.514Z,57.60
2019-01-25T08:52:19.665Z,57.90
2019-01-25T08:54:22.548Z,57.80
2019-01-25T08:56:26.283Z,58.00
2019-01-25T08:58:29.333Z,57.90
2019-01-25T09:00:32.991Z,58.00
2019-01-25T09:02:35.855Z,57.90
2019-01-25T09:04:38.911Z,57.90
2019-01-25T09:06:43.164Z,58.10
2019-01-25T09:08:46.411Z,58.10
2019-01-25T09:10:50.075Z,58.70
2019-01-25T09:12:53.061Z,58.10
2019-01-25T09:14:57.577Z,58.20
2019-01-25T09:17:00.675Z,58.20
2019-01-25T09:19:04.363Z,58.40
2019-01-25T09:21:07.250Z,58.30
2019-01-25T09:23:10.941Z,58.40
2019-01-25T09:25:13.930Z,58.40
2019-01-25T09:27:17.249Z,58.50
2019-01-25T09:29:20.302Z,58.60
2019-01-25T09:31:23.282Z,59.30
2019-01-25T09:33:26.271Z,58.70
2019-01-25T09:35:29.357Z,58.80
2019-01-25T09:37:32.327Z,58.80
2019-01-25T09:39:35.215Z,58.90
2019-01-25T09:41:39.513Z,58.90
2019-01-25T09:43:42.166Z,59.30
2019-01-25T09:45:45.117Z,59.10
2019-01-25T09:47:48.787Z,59.30
2019-01-25T09:49:54.218Z,59.30
2019-01-25T09:51:57.910Z,59.30
2019-01-25T09:54:00.919Z,59.30
2019-01-25T09:56:04.640Z,59.40
2019-01-25T09:58:08.311Z,59.50
2019-01-25T10:00:16.726Z,59.40
2019-01-25T10:02:20.387Z,59.50
2019-01-25T10:04:23.406Z,59.50
2019-01-25T10:06:26.322Z,59.50
2019-01-25T10:08:30.010Z,59.60
2019-01-25T10:10:33.174Z,59.60
2019-01-25T10:12:43.076Z,59.60
2019-01-25T10:14:39.018Z,59.70
2019-01-25T10:16:41.945Z,59.70
2019-01-25T10:18:46.034Z,59.70
2019-01-25T10:20:49.690Z,59.70
2019-01-25T10:22:52.643Z,59.70
2019-01-25T10:24:56.287Z,59.80
2019-01-25T10:26:59.204Z,59.80
2019-01-25T10:29:02.871Z,60.10
2019-01-25T10:31:05.891Z,59.70
2019-01-25T10:33:09.548Z,59.90
2019-01-25T10:35:13.104Z,59.80
2019-01-25T10:37:16.773Z,59.90
2019-01-25T10:39:19.785Z,59.80
2019-01-25T10:41:23.450Z,60.00
2019-01-25T10:43:26.451Z,59.90
2019-01-25T10:45:39.895Z,59.90
2019-01-25T10:47:44.375Z,59.80
2019-01-25T10:49:47.473Z,59.80
2019-01-25T10:51:50.355Z,59.80
2019-01-25T10:53:53.302Z,59.80
2019-01-25T10:55:56.619Z,59.90
2019-01-25T10:57:59.559Z,59.90
2019-01-25T11:00:02.534Z,59.90
2019-01-25T11:02:06.112Z,60.10
2019-01-25T11:04:11.653Z,61.30
2019-01-25T11:06:12.918Z,61.20
2019-01-25T11:08:15.932Z,61.30
2019-01-25T11:10:18.968Z,61.20
2019-01-25T11:12:23.467Z,60.80
2019-01-25T11:14:27.338Z,60.80
2019-01-25T11:16:30.245Z,60.60
2019-01-25T11:18:33.143Z,60.60
2019-01-25T11:20:36.922Z,60.90
2019-01-25T11:22:41.089Z,61.00
2019-01-25T11:24:44.791Z,60.30
2019-01-25T11:26:47.953Z,60.30
2019-01-25T11:28:51.592Z,60.40
2019-01-25T11:30:54.504Z,60.30
2019-01-25T11:32:57.582Z,60.40
2019-01-25T11:35:01.385Z,60.40
2019-01-25T11:37:04.250Z,60.40
2019-01-25T11:39:07.162Z,60.40
2019-01-25T11:41:10.988Z,60.50
2019-01-25T11:43:15.362Z,60.50
2019-01-25T11:45:18.286Z,60.40
2019-01-25T11:47:21.271Z,60.50
2019-01-25T11:49:25.258Z,60.60
2019-01-25T11:51:28.936Z,60.70
2019-01-25T11:53:33.331Z,60.60
2019-01-25T11:55:36.234Z,60.70
2019-01-25T11:57:39.150Z,60.70
2019-01-25T11:59:43.018Z,60.70
2019-01-25T12:01:45.907Z,60.70
2019-01-25T12:03:49.720Z,60.50
2019-01-25T12:05:53.956Z,60.70
2019-01-25T12:07:56.839Z,60.60
2019-01-25T12:10:00.339Z,60.60
2019-01-25T12:12:03.861Z,61.00
2019-01-25T12:14:06.748Z,60.70
2019-01-25T12:16:09.655Z,60.70
2019-01-25T12:18:13.374Z,60.90
2019-01-25T12:20:18.704Z,60.90
2019-01-25T12:22:22.380Z,61.00
2019-01-25T12:24:26.440Z,61.00
2019-01-25T12:26:28.179Z,60.90
2019-01-25T12:28:32.259Z,60.80
2019-01-25T12:30:37.666Z,60.80
2019-01-25T12:32:39.180Z,60.90
2019-01-25T12:34:42.834Z,60.80
2019-01-25T12:36:45.721Z,60.70
2019-01-25T12:38:48.602Z,60.80
2019-01-25T12:40:51.590Z,60.80
2019-01-25T12:42:54.491Z,60.80
2019-01-25T12:44:57.506Z,60.80
2019-01-25T12:47:00.819Z,60.80
2019-01-25T12:49:03.704Z,60.70
2019-01-25T12:51:06.599Z,60.70
2019-01-25T12:53:11.025Z,60.80
2019-01-25T12:55:13.882Z,60.80
2019-01-25T12:57:17.495Z,60.70
2019-01-25T12:59:20.402Z,60.70
2019-01-25T13:01:24.766Z,60.60
2019-01-25T13:03:27.652Z,60.60
2019-01-25T13:05:31.289Z,60.60
2019-01-25T13:07:34.955Z,60.60
2019-01-25T13:09:37.841Z,60.60
2019-01-25T13:11:40.785Z,60.60
2019-01-25T13:13:43.773Z,60.60
2019-01-25T13:15:46.727Z,60.60
2019-01-25T13:17:50.314Z,60.60
2019-01-25T13:19:54.686Z,60.70
2019-01-25T13:21:57.570Z,60.60
2019-01-25T13:24:00.597Z,60.60
2019-01-25T13:26:04.260Z,60.60
2019-01-25T13:28:07.134Z,60.50
2019-01-25T13:30:13.723Z,60.40
2019-01-25T13:32:16.607Z,60.40
2019-01-25T13:34:19.517Z,60.30
2019-01-25T13:36:23.175Z,59.80
2019-01-25T13:38:26.155Z,60.10
2019-01-25T13:40:29.754Z,60.10
2019-01-25T13:42:32.855Z,60.00
2019-01-25T13:44:35.731Z,59.90
2019-01-25T13:46:38.639Z,60.00
2019-01-25T13:48:42.426Z,59.90
2019-01-25T13:50:46.131Z,59.80
2019-01-25T13:52:50.468Z,59.90
2019-01-25T13:54:54.127Z,59.60
2019-01-25T13:56:57.127Z,59.60
2019-01-25T13:59:00.791Z,59.50
2019-01-25T14:01:03.700Z,59.50
2019-01-25T14:03:06.583Z,59.50
2019-01-25T14:05:10.296Z,59.40
2019-01-25T14:07:14.388Z,59.40
2019-01-25T14:09:17.334Z,59.40
2019-01-25T14:11:20.234Z,59.30
2019-01-25T14:13:23.248Z,59.30
2019-01-25T14:15:27.138Z,59.20
2019-01-25T14:17:30.135Z,59.20
2019-01-25T14:19:33.098Z,59.70
2019-01-25T14:21:35.997Z,59.00
2019-01-25T14:23:38.886Z,59.00
2019-01-25T14:25:43.075Z,59.00
2019-01-25T14:27:45.958Z,58.80
2019-01-25T14:29:48.838Z,58.80
2019-01-25T14:31:52.535Z,59.50
2019-01-25T14:33:55.411Z,58.80
2019-01-25T14:35:58.412Z,58.70
2019-01-25T14:38:02.303Z,59.30
2019-01-25T14:40:05.187Z,58.60
2019-01-25T14:42:08.270Z,58.50
2019-01-25T14:44:11.234Z,58.60
2019-01-25T14:46:14.151Z,58.50
2019-01-25T14:48:17.791Z,58.40
2019-01-25T14:50:22.570Z,58.40
2019-01-25T14:52:25.463Z,58.30
2019-01-25T14:54:29.515Z,58.30
2019-01-25T14:56:32.862Z,58.30
2019-01-25T14:58:36.542Z,58.30
2019-01-25T15:00:39.439Z,58.80
2019-01-25T15:02:43.107Z,58.20
2019-01-25T15:04:46.021Z,58.10
2019-01-25T15:06:48.991Z,58.10
2019-01-25T15:08:51.896Z,58.00
2019-01-25T15:10:55.575Z,58.00
2019-01-25T15:13:00.039Z,58.00
2019-01-25T15:15:02.878Z,57.90
2019-01-25T15:17:06.675Z,58.00
2019-01-25T15:19:09.563Z,57.90
2019-01-25T15:21:13.462Z,57.80
2019-01-25T15:23:17.122Z,57.80
2019-01-25T15:25:20.003Z,57.80
2019-01-25T15:27:22.922Z,57.80
2019-01-25T15:29:26.618Z,57.90
2019-01-25T15:31:29.915Z,57.90
2019-01-25T15:33:33.594Z,58.00
2019-01-25T15:35:36.475Z,57.90
2019-01-25T15:37:39.575Z,57.80
2019-01-25T15:39:42.854Z,57.90
2019-01-25T15:41:45.752Z,57.90
2019-01-25T15:43:49.503Z,58.00
2019-01-25T15:45:52.387Z,58.00
2019-01-25T15:47:55.267Z,58.00
2019-01-25T15:49:58.198Z,57.90
2019-01-25T15:52:02.807Z,58.00
2019-01-25T15:54:05.694Z,57.90
2019-01-25T15:56:10.043Z,57.70
2019-01-25T15:58:13.707Z,58.10
2019-01-25T16:00:17.499Z,58.00
2019-01-25T16:02:20.399Z,58.00
2019-01-25T16:04:23.466Z,57.90
2019-01-25T16:06:27.958Z,57.90
2019-01-25T16:08:30.862Z,57.90
2019-01-25T16:10:33.867Z,57.80
2019-01-25T16:12:37.511Z,57.80
2019-01-25T16:14:40.631Z,57.70
2019-01-25T16:16:43.610Z,57.70
2019-01-25T16:18:46.506Z,57.60
2019-01-25T16:20:50.175Z,57.50
2019-01-25T16:22:53.095Z,57.50
2019-01-25T16:24:56.752Z,57.60
2019-01-25T16:27:00.234Z,57.30
2019-01-25T16:29:03.395Z,57.30
2019-01-25T16:31:07.034Z,57.30
2019-01-25T16:33:09.928Z,57.30
2019-01-25T16:35:12.886Z,57.30
2019-01-25T16:37:15.806Z,57.30
2019-01-25T16:39:19.510Z,57.20
2019-01-25T16:41:23.826Z,57.20
2019-01-25T16:43:27.557Z,57.20
2019-01-25T16:45:34.775Z,57.20
2019-01-25T16:47:37.683Z,57.10
2019-01-25T16:49:40.561Z,57.00
2019-01-25T16:51:43.439Z,56.70
2019-01-25T16:53:46.431Z,56.80
2019-01-25T16:55:49.330Z,56.90
2019-01-25T16:57:52.981Z,57.10
2019-01-25T16:59:55.886Z,57.00
2019-01-25T17:01:58.767Z,57.00
2019-01-25T17:04:01.654Z,57.00
2019-01-25T17:06:04.631Z,57.10
2019-01-25T17:08:07.515Z,57.10
2019-01-25T17:10:10.926Z,57.10
2019-01-25T17:12:15.387Z,57.20
2019-01-25T17:14:18.308Z,57.10
2019-01-25T17:16:21.957Z,57.10
2019-01-25T17:18:24.988Z,57.10
2019-01-25T17:20:28.108Z,57.20
2019-01-25T17:22:31.774Z,57.30
2019-01-25T17:24:34.764Z,57.30
2019-01-25T17:26:38.415Z,57.40
2019-01-25T17:28:41.856Z,57.40
2019-01-25T17:30:45.539Z,57.50
2019-01-25T17:32:48.423Z,57.50
2019-01-25T17:34:51.294Z,57.60
2019-01-25T17:36:54.295Z,57.60
2019-01-25T17:38:57.174Z,57.60
2019-01-25T17:41:00.058Z,57.70
2019-01-25T17:43:02.974Z,57.70
2019-01-25T17:45:05.864Z,57.70
2019-01-25T17:47:09.621Z,57.70
2019-01-25T17:49:13.520Z,57.80
2019-01-25T17:51:16.522Z,57.80
2019-01-25T17:53:20.178Z,57.80
2019-01-25T17:55:23.295Z,57.70
2019-01-25T17:57:26.275Z,57.80
2019-01-25T17:59:29.266Z,57.80
2019-01-25T18:01:33.365Z,58.50
2019-01-25T18:03:36.350Z,57.90
2019-01-25T18:05:39.231Z,58.00
2019-01-25T18:07:42.147Z,58.00
2019-01-25T18:09:45.845Z,58.00
2019-01-25T18:11:49.527Z,58.10
2019-01-25T18:13:53.315Z,58.10
2019-01-25T18:15:56.230Z,58.10
2019-01-25T18:17:59.930Z,58.20
2019-01-25T18:20:03.698Z,58.30
2019-01-25T18:22:08.103Z,58.20
2019-01-25T18:24:11.508Z,58.30
2019-01-25T18:26:14.523Z,58.30
2019-01-25T18:28:17.472Z,58.30
2019-01-25T18:30:37.284Z,58.30
2019-01-25T18:32:41.055Z,58.40
2019-01-25T18:34:43.965Z,58.30
2019-01-25T18:36:46.955Z,58.30
2019-01-25T18:38:50.728Z,58.40
2019-01-25T18:40:54.391Z,58.50
2019-01-25T18:42:57.274Z,58.40
2019-01-25T18:45:00.278Z,58.50
2019-01-25T18:47:03.158Z,58.50
2019-01-25T18:49:06.250Z,58.50
2019-01-25T18:51:09.171Z,58.60
2019-01-25T18:53:12.054Z,58.50
2019-01-25T18:55:15.670Z,58.60
2019-01-25T18:57:18.591Z,58.60
2019-01-25T18:59:21.607Z,58.70
2019-01-25T19:01:25.635Z,58.70
2019-01-25T19:03:28.555Z,58.70
2019-01-25T19:05:31.446Z,58.70
2019-01-25T19:07:35.434Z,58.80
2019-01-25T19:09:38.606Z,58.70
2019-01-25T19:11:41.438Z,58.80
2019-01-25T19:13:45.083Z,58.70
2019-01-25T19:15:48.328Z,58.70
2019-01-25T19:17:52.083Z,58.80
2019-01-25T19:19:55.059Z,58.80
2019-01-25T19:21:58.807Z,58.80
2019-01-25T19:24:02.459Z,58.70
2019-01-25T19:26:05.372Z,58.80
2019-01-25T19:28:08.454Z,58.80
2019-01-25T19:30:20.457Z,58.80
2019-01-25T19:32:23.194Z,58.80
2019-01-25T19:34:26.098Z,58.70
2019-01-25T19:36:29.022Z,58.80
2019-01-25T19:38:32.679Z,58.80
2019-01-25T19:40:35.591Z,58.70
2019-01-25T19:42:39.258Z,58.80
2019-01-25T19:44:42.139Z,58.70
2019-01-25T19:46:45.122Z,58.70
2019-01-25T19:48:48.008Z,58.70
2019-01-25T19:50:50.903Z,58.70
2019-01-25T19:52:54.660Z,58.80
2019-01-25T19:54:58.531Z,58.80
2019-01-25T19:57:02.527Z,58.80
2019-01-25T19:59:05.728Z,58.80
2019-01-25T20:01:09.381Z,59.00
2019-01-25T20:03:12.262Z,59.00
2019-01-25T20:05:15.162Z,59.10
2019-01-25T20:07:18.072Z,59.10
2019-01-25T20:09:21.021Z,59.20
2019-01-25T20:11:24.775Z,59.30
2019-01-25T20:13:27.733Z,59.30
2019-01-25T20:15:31.367Z,59.40
2019-01-25T20:17:35.047Z,59.40
2019-01-25T20:19:38.118Z,59.30
2019-01-25T20:21:41.862Z,59.40
2019-01-25T20:23:45.379Z,59.50
2019-01-25T20:25:48.266Z,59.40
2019-01-25T20:27:51.183Z,59.50
2019-01-25T20:29:55.347Z,59.50
2019-01-25T20:31:58.347Z,59.60
2019-01-25T20:34:02.395Z,59.60
2019-01-25T20:36:06.870Z,59.70
2019-01-25T20:38:10.526Z,59.30
2019-01-25T20:40:13.657Z,59.70
2019-01-25T20:42:16.848Z,59.80
2019-01-25T20:44:20.346Z,59.90
2019-01-25T20:46:23.831Z,59.90
2019-01-25T20:48:27.167Z,60.00
2019-01-25T20:50:35.118Z,60.10
2019-01-25T20:52:43.704Z,60.10
2019-01-25T20:54:49.763Z,60.10
2019-01-25T20:56:52.714Z,60.30
2019-01-25T20:58:55.875Z,60.40
2019-01-25T21:01:00.002Z,60.90
2019-01-25T21:03:04.973Z,60.80
2019-01-25T21:05:10.369Z,60.90
2019-01-25T21:07:14.273Z,61.40
2019-01-25T21:09:17.987Z,61.50
2019-01-25T21:11:20.911Z,61.50
2019-01-25T21:13:24.041Z,61.60
2019-01-25T21:15:34.787Z,62.10
2019-01-25T21:17:30.587Z,62.00
2019-01-25T21:19:33.557Z,62.30
2019-01-25T21:21:36.467Z,62.30
2019-01-25T21:23:40.203Z,62.60
2019-01-25T21:25:43.113Z,62.60
2019-01-25T21:27:46.069Z,62.80
2019-01-25T21:29:48.964Z,63.70
2019-01-25T21:31:51.950Z,63.10
2019-01-25T21:33:54.931Z,63.30
2019-01-25T21:35:57.850Z,63.40
2019-01-25T21:38:00.954Z,63.60
2019-01-25T21:40:10.096Z,63.90
2019-01-25T21:42:13.007Z,63.80
2019-01-25T21:44:15.986Z,64.00
2019-01-25T21:46:19.915Z,64.10
2019-01-25T21:48:22.827Z,64.30
2019-01-25T21:50:27.389Z,64.70
2019-01-25T21:52:30.327Z,64.60
2019-01-25T21:54:33.177Z,64.70
2019-01-25T21:56:36.091Z,64.90
2019-01-25T21:58:40.642Z,65.20
2019-01-25T22:00:43.531Z,65.10
2019-01-25T22:02:46.771Z,65.30
2019-01-25T22:04:50.440Z,66.00
2019-01-25T22:06:53.360Z,65.50
2019-01-25T22:08:56.434Z,65.60
2019-01-25T22:10:59.326Z,65.70
2019-01-25T22:13:03.048Z,65.90
2019-01-25T22:15:06.003Z,65.90
2019-01-25T22:17:09.710Z,66.10
2019-01-25T22:19:13.407Z,66.20
2019-01-25T22:21:17.209Z,65.80
2019-01-25T22:23:20.347Z,66.30
2019-01-25T22:25:23.257Z,66.40
2019-01-25T22:27:26.260Z,66.50
2019-01-25T22:29:29.242Z,66.60
2019-01-25T22:31:33.068Z,66.80
2019-01-25T22:33:36.743Z,66.90
2019-01-25T22:35:39.626Z,66.80
2019-01-25T22:37:43.330Z,67.00
2019-01-25T22:39:47.001Z,67.20
2019-01-25T22:41:49.913Z,67.10
2019-01-25T22:43:53.581Z,67.30
2019-01-25T22:45:58.643Z,67.20
2019-01-25T22:47:59.391Z,67.30
2019-01-25T22:50:02.296Z,67.40
2019-01-25T22:52:05.318Z,67.50
2019-01-25T22:54:08.269Z,67.60
2019-01-25T22:56:11.283Z,67.50
2019-01-25T22:58:14.183Z,67.60
2019-01-25T23:00:22.838Z,67.70
2019-01-25T23:02:26.644Z,67.70
2019-01-25T23:04:29.667Z,67.70
2019-01-25T23:06:33.655Z,67.70
2019-01-25T23:08:36.549Z,67.80
2019-01-25T23:10:39.601Z,67.80
2019-01-25T23:12:42.476Z,67.90
2019-01-25T23:14:45.507Z,68.00
2019-01-25T23:16:50.169Z,68.10
2019-01-25T23:18:53.480Z,68.10
2019-01-25T23:20:56.619Z,68.10
2019-01-25T23:23:00.698Z,68.30
2019-01-25T23:25:03.591Z,68.20
2019-01-25T23:27:06.489Z,68.30
2019-01-25T23:29:10.174Z,68.50
2019-01-25T23:31:13.070Z,68.40
2019-01-25T23:33:16.728Z,68.50
2019-01-25T23:35:19.702Z,68.50
2019-01-25T23:37:22.725Z,68.50
2019-01-25T23:39:25.702Z,68.50
2019-01-25T23:41:28.706Z,68.60
2019-01-25T23:43:32.362Z,68.70
2019-01-25T23:45:36.086Z,68.60
2019-01-25T23:47:39.162Z,68.60
2019-01-25T23:49:42.055Z,68.30
2019-01-25T23:51:44.935Z,68.40
2019-01-25T23:53:48.096Z,68.60
2019-01-25T23:55:51.014Z,68.60
2019-01-25T23:57:54.670Z,68.90
2019-01-25T23:59:57.586Z,68.80
